Time;durP1;ratioP1;P1;durP2;ratioP2;P2;SDS_P1;SDS_P2;PMS_P1;PMS_P2;Temp;Humidity;BMP_temperature;BMP_pressure;BME280_temperature;BME280_humidity;BME280_pressure;Samples;Min_cycle;Max_cycle;Signal;HPM_P1;HPM_P2
2024/03/30 00:01:21;;;;;;;;;;;;;;;16.53;51.73;100939.25;5037810;28;1047;-49
2024/03/30 00:03:47;;;;;;;;;;;;;;;16.31;52.08;100935.44;5037900;28;1151;-52
2024/03/30 00:06:12;;;;;;;;;;;;;;;16.63;52.28;100929.66;5037829;28;1126;-47
2024/03/30 00:08:38;;;;;;;;;;;;;;;17.78;49.24;100926.84;5037055;28;1079;-50
2024/03/30 00:11:04;;;;;;;;;;;;;;;16.92;51.18;100938.31;5037184;28;1979;-49
2024/03/30 00:13:29;;;;;;;;;;;;;;;16.56;51.84;100931.06;5037671;28;1202;-51
2024/03/30 00:15:55;;;;;;;;;;;;;;;16.36;51.78;100928.00;5037183;28;1040;-51
2024/03/30 00:18:20;;;;;;;;;;;;;;;16.20;51.96;100932.66;5037615;28;1068;-49
2024/03/30 00:20:46;;;;;;;;;;;;;;;17.17;51.00;100933.91;5037178;28;1211;-50
2024/03/30 00:23:11;;;;;;;;;;;;;;;17.44;49.91;100939.03;5037462;28;1111;-52
2024/03/30 00:25:37;;;;;;;;;;;;;;;16.75;51.46;100940.38;5036899;28;1067;-48
2024/03/30 00:28:03;;;;;;;;;;;;;;;16.38;51.84;100933.19;5037274;28;1063;-52
2024/03/30 00:30:36;;;;;;;;;;;;;;;16.26;52.03;100935.75;5036650;28;1913;-49
2024/03/30 00:33:02;;;;;;;;;;;;;;;16.55;52.32;100941.78;5037016;28;1160;-51
2024/03/30 00:35:27;;;;;;;;;;;;;;;17.83;49.34;100943.31;5036885;28;1417;-48
2024/03/30 00:37:54;;;;;;;;;;;;;;;16.96;51.13;100942.47;5037238;28;1056;-48
2024/03/30 00:40:20;;;;;;;;;;;;;;;16.55;51.55;100944.44;5036689;28;1147;-51
2024/03/30 00:42:48;;;;;;;;;;;;;;;16.33;51.89;100941.44;5036993;28;1126;-50
2024/03/30 00:45:14;;;;;;;;;;;;;;;16.13;51.94;100942.84;5036812;28;862;-51
2024/03/30 00:47:39;;;;;;;;;;;;;;;17.28;50.79;100938.47;5036801;28;1063;-52
2024/03/30 00:50:05;;;;;;;;;;;;;;;17.57;49.64;100946.97;5036696;28;1044;-52
2024/03/30 00:52:31;;;;;;;;;;;;;;;16.75;51.20;100941.22;5036592;28;1902;-50
2024/03/30 00:54:56;;;;;;;;;;;;;;;16.51;51.78;100942.00;5037181;28;1063;-51
2024/03/30 00:57:22;;;;;;;;;;;;;;;16.29;51.99;100929.38;5036512;28;1084;-52
2024/03/30 00:59:47;;;;;;;;;;;;;;;16.13;51.99;100927.75;5036267;28;1055;-51
2024/03/30 01:02:13;;;;;;;;;;;;;;;17.48;50.44;100929.84;5036595;28;1199;-51
2024/03/30 01:04:38;;;;;;;;;;;;;;;17.36;50.11;100933.44;5036483;28;1080;-51
2024/03/30 01:07:04;;;;;;;;;;;;;;;16.75;51.44;100937.72;5036440;28;1148;-53
2024/03/30 01:09:29;;;;;;;;;;;;;;;16.47;51.60;100934.34;5036335;28;956;-49
2024/03/30 01:11:55;;;;;;;;;;;;;;;16.25;51.74;100926.06;5035983;28;1906;-50
2024/03/30 01:14:22;;;;;;;;;;;;;;;16.38;52.41;100925.22;5018545;28;1099;-52
2024/03/30 01:16:48;;;;;;;;;;;;;;;17.78;49.40;100932.16;5036256;28;1147;-52
2024/03/30 01:19:14;;;;;;;;;;;;;;;17.06;50.76;100932.03;5036642;28;1218;-49
2024/03/30 01:21:40;;;;;;;;;;;;;;;16.65;51.70;100934.84;5035988;28;1027;-50
2024/03/30 01:24:05;;;;;;;;;;;;;;;16.39;51.79;100932.22;5036509;28;1156;-52
2024/03/30 01:26:31;;;;;;;;;;;;;;;16.80;51.95;100932.91;5036151;28;1114;-48
2024/03/30 01:28:57;;;;;;;;;;;;;;;17.86;49.05;100932.44;5019013;28;1214;-52
2024/03/30 01:31:22;;;;;;;;;;;;;;;16.98;50.85;100927.28;5036232;28;1972;-48
2024/03/30 01:33:48;;;;;;;;;;;;;;;16.65;51.26;100926.88;5036263;28;842;-50
2024/03/30 01:36:14;;;;;;;;;;;;;;;16.36;51.89;100925.34;5036364;28;1091;-50
2024/03/30 01:38:39;;;;;;;;;;;;;;;16.22;51.64;100922.75;5036078;28;1103;-53
2024/03/30 01:41:05;;;;;;;;;;;;;;;16.40;52.35;100928.59;5036057;28;1154;-50
2024/03/30 01:43:30;;;;;;;;;;;;;;;17.74;49.59;100921.75;5035959;28;1148;-50
2024/03/30 01:45:56;;;;;;;;;;;;;;;17.08;50.67;100920.31;5036057;28;906;-51
2024/03/30 01:48:21;;;;;;;;;;;;;;;16.62;51.62;100927.09;5035910;28;1052;-50
2024/03/30 01:50:48;;;;;;;;;;;;;;;16.44;51.70;100926.59;5036245;28;1910;-52
2024/03/30 01:53:13;;;;;;;;;;;;;;;16.20;51.96;100917.56;5022882;28;1051;-51
2024/03/30 01:55:39;;;;;;;;;;;;;;;17.34;50.80;100924.72;5036121;28;1060;-50
2024/03/30 01:58:05;;;;;;;;;;;;;;;17.46;49.96;100929.16;5013101;28;886;-49
2024/03/30 02:00:31;;;;;;;;;;;;;;;16.75;51.30;100924.44;5036095;28;1114;-52
2024/03/30 02:03:00;;;;;;;;;;;;;;;16.47;51.55;100926.38;5002556;28;1233;-50
2024/03/30 02:05:26;;;;;;;;;;;;;;;16.24;52.26;100918.22;5036082;28;1111;-50
2024/03/30 02:07:52;;;;;;;;;;;;;;;17.31;50.64;100912.50;5035823;28;1167;-52
2024/03/30 02:10:17;;;;;;;;;;;;;;;17.53;49.62;100915.38;5018405;28;958;-49
2024/03/30 02:12:42;;;;;;;;;;;;;;;16.89;50.97;100913.69;5051010;28;1905;-52
2024/03/30 02:15:08;;;;;;;;;;;;;;;16.48;51.69;100918.31;5051312;28;1082;-49
2024/03/30 02:17:34;;;;;;;;;;;;;;;16.38;51.75;100923.41;5039319;28;1191;-52
2024/03/30 02:19:59;;;;;;;;;;;;;;;16.28;52.40;100917.06;5039779;28;1096;-51
2024/03/30 02:22:25;;;;;;;;;;;;;;;17.67;49.67;100922.31;5035457;28;849;-49
2024/03/30 02:24:50;;;;;;;;;;;;;;;17.24;50.43;100928.06;5039545;28;1120;-51
2024/03/30 02:27:16;;;;;;;;;;;;;;;16.75;51.35;100924.44;5039508;28;1044;-50
2024/03/30 02:29:45;;;;;;;;;;;;;;;16.46;51.69;100930.84;5039810;28;1166;-52
2024/03/30 02:32:10;;;;;;;;;;;;;;;16.26;51.77;100921.63;5041348;28;1968;-52
2024/03/30 02:34:36;;;;;;;;;;;;;;;17.00;51.59;100935.97;5038898;28;917;-48
2024/03/30 02:37:01;;;;;;;;;;;;;;;17.64;49.48;100934.06;5026277;28;1034;-51
2024/03/30 02:39:27;;;;;;;;;;;;;;;16.86;51.11;100935.16;5055142;28;1131;-50
2024/03/30 02:41:52;;;;;;;;;;;;;;;16.52;51.45;100930.41;5039798;28;1084;-51
2024/03/30 02:44:19;;;;;;;;;;;;;;;16.32;51.65;100933.59;5039234;28;1139;-49
2024/03/30 02:46:45;;;;;;;;;;;;;;;16.83;51.72;100931.88;5038839;28;890;-51
2024/03/30 02:49:10;;;;;;;;;;;;;;;17.83;49.03;100925.50;5039159;28;1039;-51
2024/03/30 02:51:36;;;;;;;;;;;;;;;16.92;51.07;100933.84;5038265;28;1981;-48
2024/03/30 02:54:01;;;;;;;;;;;;;;;16.59;51.58;100935.28;5038798;28;1152;-50
2024/03/30 02:56:27;;;;;;;;;;;;;;;16.39;51.82;100930.44;5038507;28;1227;-49
2024/03/30 02:58:54;;;;;;;;;;;;;;;16.22;51.94;100936.03;5039214;28;854;-50
2024/03/30 03:01:19;;;;;;;;;;;;;;;17.14;51.29;100940.31;5021165;28;996;-50
2024/03/30 03:03:45;;;;;;;;;;;;;;;17.49;49.81;100939.56;5038410;28;1028;-54
2024/03/30 03:06:10;;;;;;;;;;;;;;;16.75;51.26;100935.06;5038618;28;1059;-52
2024/03/30 03:08:36;;;;;;;;;;;;;;;16.42;51.67;100937.31;5038730;28;1035;-53
2024/03/30 03:11:01;;;;;;;;;;;;;;;16.36;51.76;100940.41;5037456;28;1967;-52
2024/03/30 03:13:27;;;;;;;;;;;;;;;16.11;51.98;100945.59;5038391;28;1127;-51
2024/03/30 03:15:52;;;;;;;;;;;;;;;17.01;51.45;100945.66;5038134;28;1174;-52
2024/03/30 03:18:18;;;;;;;;;;;;;;;17.41;49.96;100947.25;5038537;28;1234;-54
2024/03/30 03:20:43;;;;;;;;;;;;;;;16.73;51.42;100950.28;5038137;28;1001;-51
2024/03/30 03:23:09;;;;;;;;;;;;;;;16.35;52.05;100944.84;5037961;28;900;-50
2024/03/30 03:25:34;;;;;;;;;;;;;;;16.29;51.73;100950.59;5037955;28;1056;-50
2024/03/30 03:28:00;;;;;;;;;;;;;;;17.16;50.98;100957.03;5038414;28;1075;-50
2024/03/30 03:30:25;;;;;;;;;;;;;;;17.34;50.16;100954.81;5038203;28;1215;-52
2024/03/30 03:32:51;;;;;;;;;;;;;;;16.71;51.32;100960.16;5037559;28;1979;-51
2024/03/30 03:35:16;;;;;;;;;;;;;;;16.39;51.62;100964.09;5037223;28;1214;-50
2024/03/30 03:37:42;;;;;;;;;;;;;;;16.17;51.95;100954.94;5037754;28;1106;-49
2024/03/30 03:40:08;;;;;;;;;;;;;;;17.44;50.45;100960.31;5037912;28;1138;-51
2024/03/30 03:42:33;;;;;;;;;;;;;;;17.24;50.34;100959.97;5037907;28;1162;-52
2024/03/30 03:44:59;;;;;;;;;;;;;;;16.67;51.73;100963.97;5038137;28;1064;-49
2024/03/30 03:47:24;;;;;;;;;;;;;;;16.36;52.08;100957.19;5036167;28;1353;-47
2024/03/30 03:49:49;;;;;;;;;;;;;;;16.26;52.02;100966.75;5037125;28;1178;-50
2024/03/30 03:52:15;;;;;;;;;;;;;;;17.65;49.84;100972.97;5037176;28;1914;-52
2024/03/30 03:54:40;;;;;;;;;;;;;;;17.35;50.05;100971.63;5037421;28;1028;-50
2024/03/30 03:57:06;;;;;;;;;;;;;;;16.74;51.47;100975.88;5031325;28;1079;-51
2024/03/30 03:59:31;;;;;;;;;;;;;;;16.45;51.92;100976.94;5029792;28;1151;-47
2024/03/30 04:01:57;;;;;;;;;;;;;;;16.34;51.71;100971.50;5028772;28;1095;-50
2024/03/30 04:04:23;;;;;;;;;;;;;;;16.32;52.20;100971.63;5032121;28;2614;-46
2024/03/30 04:06:48;;;;;;;;;;;;;;;17.72;49.67;100973.38;5035498;28;1381;-50
2024/03/30 04:09:15;;;;;;;;;;;;;;;17.33;50.08;100978.88;5027339;28;1262;-50
2024/03/30 04:11:40;;;;;;;;;;;;;;;16.71;51.30;100970.78;5025004;28;1906;-49
2024/03/30 04:14:06;;;;;;;;;;;;;;;16.46;51.67;100980.44;5028361;28;1270;-50
2024/03/30 04:16:31;;;;;;;;;;;;;;;16.27;51.88;100987.00;5028551;28;1294;-48
2024/03/30 04:18:57;;;;;;;;;;;;;;;16.80;51.74;100994.03;5034986;28;1001;-49
2024/03/30 04:21:22;;;;;;;;;;;;;;;17.70;49.34;100997.44;5037123;28;1087;-52
2024/03/30 04:23:51;;;;;;;;;;;;;;;16.86;51.19;100998.94;5036567;28;877;-52
2024/03/30 04:26:18;;;;;;;;;;;;;;;16.48;51.82;101003.28;5036483;28;1087;-52
2024/03/30 04:28:43;;;;;;;;;;;;;;;16.23;52.04;101004.94;5036324;28;1059;-51
2024/03/30 04:31:10;;;;;;;;;;;;;;;16.74;51.84;101016.56;5036818;28;1906;-54
2024/03/30 04:33:35;;;;;;;;;;;;;;;17.78;49.32;101020.84;5035920;28;1016;-51
2024/03/30 04:36:01;;;;;;;;;;;;;;;16.90;51.21;101012.84;5036303;28;2486;-52
2024/03/30 04:38:27;;;;;;;;;;;;;;;16.58;51.47;101014.13;5036003;28;1024;-55
2024/03/30 04:40:59;;;;;;;;;;;;;;;16.33;52.12;101012.31;5036229;28;1088;-50
2024/03/30 04:43:24;;;;;;;;;;;;;;;16.13;52.52;101017.16;5036095;28;1127;-50
2024/03/30 04:45:50;;;;;;;;;;;;;;;17.47;50.38;101017.75;5036213;28;1004;-48
2024/03/30 04:48:15;;;;;;;;;;;;;;;17.14;50.58;101025.38;5036401;28;1112;-51
2024/03/30 04:50:41;;;;;;;;;;;;;;;16.67;51.65;101020.59;5018415;28;1896;-52
2024/03/30 04:53:06;;;;;;;;;;;;;;;16.44;51.74;101025.69;5038678;28;1104;-56
2024/03/30 04:55:32;;;;;;;;;;;;;;;16.24;51.85;101022.59;5047478;28;1506;-47
2024/03/30 04:57:57;;;;;;;;;;;;;;;16.26;52.60;101018.03;5031969;28;1206;-55
2024/03/30 05:00:23;;;;;;;;;;;;;;;17.65;49.93;101023.53;5036497;28;1221;-57
2024/03/30 05:02:48;;;;;;;;;;;;;;;17.01;50.97;101022.72;5037843;28;1068;-55
2024/03/30 05:05:14;;;;;;;;;;;;;;;16.60;51.57;101011.38;5038472;28;997;-57
2024/03/30 05:07:39;;;;;;;;;;;;;;;16.32;51.95;101021.19;5050105;28;2686;-57
2024/03/30 05:10:05;;;;;;;;;;;;;;;17.18;51.69;101021.56;5035060;28;1166;-56
2024/03/30 05:12:31;;;;;;;;;;;;;;;15.96;52.91;101018.25;5035454;28;1910;-55
2024/03/30 05:14:56;;;;;;;;;;;;;;;16.54;54.02;101017.94;5035735;28;1082;-57
2024/03/30 05:17:22;;;;;;;;;;;;;;;16.55;52.65;101016.97;5035661;28;997;-53
2024/03/30 05:22:31;;;;;;;;;;;;;;;17.11;52.10;101023.81;5019627;28;1034;-55
2024/03/30 05:24:57;;;;;;;;;;;;;;;16.57;53.68;101022.19;5052550;28;890;-55
2024/03/30 05:27:22;;;;;;;;;;;;;;;18.28;50.31;101030.50;5035610;28;1040;-55
2024/03/30 05:29:48;;;;;;;;;;;;;;;17.43;51.72;101022.47;5035453;28;1092;-55
2024/03/30 05:32:13;;;;;;;;;;;;;;;16.66;51.43;101013.59;5035361;28;1914;-56
2024/03/30 05:34:39;;;;;;;;;;;;;;;16.29;50.24;101022.28;5035391;28;1089;-55
2024/03/30 05:37:04;;;;;;;;;;;;;;;16.03;49.63;101019.56;5035358;28;1180;-52
2024/03/30 05:39:30;;;;;;;;;;;;;;;17.00;51.66;101029.84;5033258;28;2498;-48
2024/03/30 05:41:55;;;;;;;;;;;;;;;16.61;51.54;101026.34;5035144;28;1120;-45
2024/03/30 05:44:21;;;;;;;;;;;;;;;16.16;50.55;101016.94;5035386;28;1286;-52
2024/03/30 05:46:46;;;;;;;;;;;;;;;17.48;51.14;101012.31;5035125;28;1303;-51
2024/03/30 05:49:12;;;;;;;;;;;;;;;16.42;51.14;101027.59;5034890;28;1227;-50
2024/03/30 05:51:38;;;;;;;;;;;;;;;16.07;50.26;101020.19;5038157;28;1968;-50
2024/03/30 05:54:03;;;;;;;;;;;;;;;16.01;49.27;101024.13;5039216;28;1278;-50
2024/03/30 05:56:29;;;;;;;;;;;;;;;16.02;49.82;101016.06;5041298;28;1298;-52
2024/03/30 05:58:54;;;;;;;;;;;;;;;16.53;50.57;101022.41;5041436;28;1171;-46
2024/03/30 06:01:20;;;;;;;;;;;;;;;16.18;49.78;101017.69;5038734;28;1246;-44
2024/03/30 06:03:45;;;;;;;;;;;;;;;16.23;50.33;101018.22;5039189;28;1243;-51
2024/03/30 06:06:11;;;;;;;;;;;;;;;16.66;50.36;101013.59;5039440;28;1219;-48
2024/03/30 06:08:36;;;;;;;;;;;;;;;16.18;49.87;101017.69;5042532;28;2715;-49
2024/03/30 06:11:02;;;;;;;;;;;;;;;17.05;50.61;101023.34;5035802;28;1992;-44
2024/03/30 06:13:27;;;;;;;;;;;;;;;16.49;50.52;101025.38;5028953;28;1004;-47
2024/03/30 06:16:04;;;;;;;;;;;;;;;16.09;49.71;101020.94;5041248;28;1191;-49
2024/03/30 06:18:30;;;;;;;;;;;;;;;15.94;48.38;101010.38;5021779;28;1189;-50
2024/03/30 06:20:56;;;;;;;;;;;;;;;17.02;49.59;101021.75;5032298;28;1214;-52
2024/03/30 06:23:21;;;;;;;;;;;;;;;16.18;49.73;101025.66;5038916;28;1025;-52
2024/03/30 06:25:47;;;;;;;;;;;;;;;17.41;50.04;101027.03;5038187;28;1246;-52
2024/03/30 06:28:12;;;;;;;;;;;;;;;17.29;50.34;101023.44;5039074;28;1250;-52
2024/03/30 06:30:38;;;;;;;;;;;;;;;16.52;50.47;101034.00;5038542;28;1989;-48
2024/03/30 06:33:05;;;;;;;;;;;;;;;16.18;49.21;101030.13;5038698;28;1211;-50
2024/03/30 06:35:32;;;;;;;;;;;;;;;16.01;48.46;101029.44;5037921;28;1222;-46
2024/03/30 06:37:58;;;;;;;;;;;;;;;15.95;47.64;101032.47;5038281;28;2610;-49
2024/03/30 06:45:51;;;;;;;;;;;;;;;16.26;49.54;101033.97;5035207;28;1001;-49
2024/03/30 06:48:17;;;;;;;;;;;;;;;16.01;48.77;101032.94;5035429;28;1028;-50
2024/03/30 06:50:42;;;;;;;;;;;;;;;16.69;49.77;101031.13;5035152;28;1910;-49
2024/03/30 06:53:08;;;;;;;;;;;;;;;16.38;49.44;101036.75;5035894;28;1234;-52
2024/03/30 06:55:33;;;;;;;;;;;;;;;16.18;49.84;101035.41;5032589;28;1107;-49
2024/03/30 06:57:59;;;;;;;;;;;;;;;17.51;49.31;101035.19;5034550;28;897;-47
2024/03/30 07:00:25;;;;;;;;;;;;;;;16.47;49.77;101028.13;5033000;28;1227;-54
2024/03/30 07:02:50;;;;;;;;;;;;;;;16.15;49.09;101033.81;5029251;28;1032;-51
2024/03/30 07:05:16;;;;;;;;;;;;;;;16.10;48.22;101028.81;5037091;28;952;-49
2024/03/30 07:07:41;;;;;;;;;;;;;;;17.24;49.47;101030.91;5036453;28;2400;-48
2024/03/30 07:10:08;;;;;;;;;;;;;;;16.41;49.79;101023.25;5044486;28;1035;-50
2024/03/30 07:12:34;;;;;;;;;;;;;;;15.96;48.74;101021.75;5036786;28;1979;-52
2024/03/30 07:14:59;;;;;;;;;;;;;;;15.96;47.95;101021.75;5036961;28;1008;-56
2024/03/30 07:17:27;;;;;;;;;;;;;;;15.85;47.53;101024.25;5033077;28;1610;-51
2024/03/30 07:19:52;;;;;;;;;;;;;;;16.50;48.69;101033.25;5041717;28;1087;-52
2024/03/30 07:22:17;;;;;;;;;;;;;;;16.49;49.57;101030.69;5037941;28;1074;-54
2024/03/30 07:24:46;;;;;;;;;;;;;;;18.10;48.80;101033.53;5033327;28;992;-50
2024/03/30 07:27:11;;;;;;;;;;;;;;;16.99;49.92;101027.28;5031605;28;1107;-53
2024/03/30 07:29:37;;;;;;;;;;;;;;;16.47;49.71;101021.97;5037514;28;1155;-55
2024/03/30 07:32:02;;;;;;;;;;;;;;;16.25;49.01;101024.28;5034763;28;1983;-48
2024/03/30 07:34:28;;;;;;;;;;;;;;;16.07;48.56;101015.75;5033316;28;1060;-50
2024/03/30 07:36:53;;;;;;;;;;;;;;;15.95;48.13;101020.03;5031271;28;1164;-55
2024/03/30 07:39:19;;;;;;;;;;;;;;;15.94;47.33;101018.34;5035896;28;2737;-46
2024/03/30 07:41:44;;;;;;;;;;;;;;;16.87;48.58;101015.72;5037116;28;996;-48
2024/03/30 07:44:11;;;;;;;;;;;;;;;16.12;48.98;101013.66;5036332;28;1147;-55
2024/03/30 07:46:37;;;;;;;;;;;;;;;17.56;49.18;101018.91;5019086;28;1155;-51
2024/03/30 07:49:02;;;;;;;;;;;;;;;17.02;49.89;101014.63;5036224;28;881;-52
2024/03/30 07:51:28;;;;;;;;;;;;;;;16.54;49.65;101020.59;5031916;28;1898;-53
2024/03/30 07:53:53;;;;;;;;;;;;;;;16.21;48.94;101014.84;5036248;28;1023;-49
2024/03/30 07:56:24;;;;;;;;;;;;;;;16.20;48.38;101015.78;5035057;28;1322;-52
2024/03/30 07:58:50;;;;;;;;;;;;;;;16.77;49.20;101010.19;5034479;28;1037;-49
2024/03/30 08:01:15;;;;;;;;;;;;;;;16.53;49.83;101009.13;5032635;28;1259;-50
2024/03/30 08:03:41;;;;;;;;;;;;;;;16.24;49.13;101008.47;5035683;28;1138;-48
2024/03/30 08:06:06;;;;;;;;;;;;;;;17.61;48.80;101001.66;5031855;28;1382;-46
2024/03/30 08:08:32;;;;;;;;;;;;;;;16.62;49.78;100994.38;5035293;28;2389;-47
2024/03/30 08:10:58;;;;;;;;;;;;;;;16.30;48.95;101000.06;5031487;28;1910;-51
2024/03/30 08:13:23;;;;;;;;;;;;;;;16.02;48.56;100993.97;5023609;28;1263;-53
2024/03/30 08:15:49;;;;;;;;;;;;;;;16.03;47.90;100999.19;5038536;28;1377;-52
2024/03/30 08:18:14;;;;;;;;;;;;;;;17.11;49.07;101001.69;5029905;28;952;-56
2024/03/30 08:20:40;;;;;;;;;;;;;;;16.53;49.52;100995.84;5027496;28;1157;-51
2024/03/30 08:23:06;;;;;;;;;;;;;;;16.23;49.11;100996.16;5037408;28;946;-55
2024/03/30 08:25:34;;;;;;;;;;;;;;;16.12;48.07;100984.44;5027855;28;1352;-49
2024/03/30 08:28:00;;;;;;;;;;;;;;;16.13;48.19;100983.47;5034769;28;1023;-55
2024/03/30 08:30:27;;;;;;;;;;;;;;;16.64;48.98;100992.47;5016566;28;973;-53
2024/03/30 08:32:52;;;;;;;;;;;;;;;16.23;48.82;100988.19;5028015;28;1907;-50
2024/03/30 08:35:18;;;;;;;;;;;;;;;16.05;48.35;100984.97;5039807;28;1028;-49
2024/03/30 08:37:43;;;;;;;;;;;;;;;15.98;47.67;100990.66;5034387;28;2502;-49
2024/03/30 08:40:09;;;;;;;;;;;;;;;16.82;48.47;100996.56;5034292;28;1042;-52
2024/03/30 08:42:35;;;;;;;;;;;;;;;16.22;48.48;100992.63;5034732;28;1076;-53
2024/03/30 08:45:00;;;;;;;;;;;;;;;15.95;48.34;100993.50;5035005;28;1047;-52
2024/03/30 08:47:26;;;;;;;;;;;;;;;16.73;48.77;100993.59;5034053;28;892;-51
2024/03/30 08:49:51;;;;;;;;;;;;;;;16.35;49.02;100999.78;5033997;28;909;-52
2024/03/30 08:52:17;;;;;;;;;;;;;;;16.10;48.66;100990.81;5038059;28;1995;-51
2024/03/30 08:54:42;;;;;;;;;;;;;;;17.28;48.17;100992.50;5034480;28;1055;-50
2024/03/30 08:57:08;;;;;;;;;;;;;;;16.39;49.00;100995.94;5040536;28;1152;-52
2024/03/30 08:59:33;;;;;;;;;;;;;;;16.10;48.35;100994.31;5028622;28;965;-55
2024/03/30 09:01:59;;;;;;;;;;;;;;;16.00;47.99;100991.41;5035624;28;995;-54
2024/03/30 09:04:24;;;;;;;;;;;;;;;15.92;47.35;100996.34;5035054;28;1067;-55
2024/03/30 09:06:50;;;;;;;;;;;;;;;15.77;47.07;100998.22;5026663;28;1090;-55
2024/03/30 09:09:16;;;;;;;;;;;;;;;16.78;47.78;100998.63;5033791;28;2680;-47
2024/03/30 09:11:41;;;;;;;;;;;;;;;16.30;48.85;100997.41;5030323;28;1926;-49
2024/03/30 09:14:07;;;;;;;;;;;;;;;15.98;48.85;100998.63;5026022;28;992;-49
2024/03/30 09:16:32;;;;;;;;;;;;;;;16.22;48.48;101000.59;5033766;28;1251;-56
2024/03/30 09:18:58;;;;;;;;;;;;;;;17.00;48.40;101000.59;5023610;28;1204;-52
2024/03/30 09:21:23;;;;;;;;;;;;;;;16.32;48.93;101006.13;5028957;28;1104;-51
2024/03/30 09:23:49;;;;;;;;;;;;;;;16.00;48.48;100995.88;5021445;28;1025;-54
2024/03/30 09:26:14;;;;;;;;;;;;;;;16.80;48.91;100998.50;5035930;28;1187;-53
2024/03/30 09:28:40;;;;;;;;;;;;;;;16.50;48.82;100992.53;5034011;28;1138;-52
2024/03/30 09:31:05;;;;;;;;;;;;;;;16.05;48.33;100992.94;5034164;28;1905;-53
2024/03/30 09:33:31;;;;;;;;;;;;;;;16.03;47.98;100991.22;5034079;28;1016;-51
2024/03/30 09:35:58;;;;;;;;;;;;;;;16.69;48.67;100997.44;5034396;28;1268;-53
2024/03/30 09:38:23;;;;;;;;;;;;;;;16.62;48.79;100986.41;5020285;28;2063;-50
2024/03/30 09:40:51;;;;;;;;;;;;;;;16.20;48.54;100991.06;5034210;28;1055;-55
2024/03/30 09:43:18;;;;;;;;;;;;;;;15.99;48.40;100994.19;5049771;28;995;-53
2024/03/30 09:45:43;;;;;;;;;;;;;;;15.86;47.65;100996.78;5022613;28;1048;-54
2024/03/30 09:48:09;;;;;;;;;;;;;;;16.86;48.30;101000.72;5049130;28;1130;-56
2024/03/30 09:50:34;;;;;;;;;;;;;;;16.16;48.77;100995.72;5016598;28;1028;-54
2024/03/30 09:53:00;;;;;;;;;;;;;;;16.71;49.26;100998.19;5034873;28;1981;-53
2024/03/30 09:55:26;;;;;;;;;;;;;;;16.60;48.79;100998.94;5049541;28;1102;-56
2024/03/30 09:57:52;;;;;;;;;;;;;;;16.28;48.60;100994.88;5034162;28;1048;-56
2024/03/30 10:00:18;;;;;;;;;;;;;;;16.12;48.09;100991.56;5034072;28;1035;-56
2024/03/30 10:02:43;;;;;;;;;;;;;;;15.97;47.55;100990.75;5016308;28;1060;-52
2024/03/30 10:05:10;;;;;;;;;;;;;;;16.00;47.83;100993.22;5034472;28;1020;-53
2024/03/30 10:07:36;;;;;;;;;;;;;;;16.60;48.12;100998.94;5034624;28;1061;-53
2024/03/30 10:10:03;;;;;;;;;;;;;;;16.71;49.04;100995.53;5034341;28;1265;-53
2024/03/30 10:12:32;;;;;;;;;;;;;;;18.35;47.78;100998.94;5034353;28;1913;-52
2024/03/30 10:14:59;;;;;;;;;;;;;;;16.88;49.67;101004.13;5034322;28;1098;-49
2024/03/30 10:17:25;;;;;;;;;;;;;;;16.58;49.11;100997.34;5014690;28;1235;-50
2024/03/30 10:19:50;;;;;;;;;;;;;;;16.47;48.42;100992.75;5033508;28;1259;-50
2024/03/30 10:22:16;;;;;;;;;;;;;;;16.21;48.12;100990.09;5017417;28;1260;-53
2024/03/30 10:24:41;;;;;;;;;;;;;;;16.25;48.12;100989.78;5020333;28;1124;-51
2024/03/30 10:27:07;;;;;;;;;;;;;;;16.93;48.90;100990.53;5034444;28;1135;-54
2024/03/30 10:29:33;;;;;;;;;;;;;;;16.36;49.37;100980.22;5042491;28;1072;-52
2024/03/30 10:32:04;;;;;;;;;;;;;;;16.25;48.39;100983.59;5017384;28;1977;-52
2024/03/30 10:34:29;;;;;;;;;;;;;;;17.53;48.77;100981.88;5034423;28;1055;-56
2024/03/30 10:36:59;;;;;;;;;;;;;;;16.59;49.48;100969.81;5028345;28;1092;-51
2024/03/30 10:39:26;;;;;;;;;;;;;;;16.41;48.32;100959.53;5044258;28;1043;-47
2024/03/30 10:41:52;;;;;;;;;;;;;;;16.24;47.88;100960.69;5047937;28;1001;-49
2024/03/30 10:44:24;;;;;;;;;;;;;;;16.20;47.35;100957.38;5037780;28;1147;-46
2024/03/30 10:46:49;;;;;;;;;;;;;;;16.06;47.33;100966.28;5025549;28;1124;-52
2024/03/30 10:49:15;;;;;;;;;;;;;;;16.19;47.83;100954.84;5037186;28;1141;-51
2024/03/30 10:51:40;;;;;;;;;;;;;;;16.66;48.44;100957.81;5035599;28;1901;-51
2024/03/30 10:54:06;;;;;;;;;;;;;;;16.27;48.51;100955.16;5070094;28;1027;-51
2024/03/30 10:56:31;;;;;;;;;;;;;;;16.05;47.75;100938.03;5037845;28;1155;-53
2024/03/30 10:58:58;;;;;;;;;;;;;;;16.14;47.99;100936.56;5037742;28;1044;-48
2024/03/30 11:01:24;;;;;;;;;;;;;;;16.94;48.37;100942.59;5036262;28;1032;-52
2024/03/30 11:03:49;;;;;;;;;;;;;;;16.37;48.45;100918.19;5036039;28;1254;-49
2024/03/30 11:06:15;;;;;;;;;;;;;;;16.16;48.13;100924.06;5037331;28;1239;-51
2024/03/30 11:08:40;;;;;;;;;;;;;;;16.07;47.83;100929.97;5041604;28;998;-49
2024/03/30 11:11:06;;;;;;;;;;;;;;;15.95;47.68;100926.34;5061803;28;1984;-50
2024/03/30 11:13:32;;;;;;;;;;;;;;;16.05;47.81;100926.59;5036370;28;1061;-51
2024/03/30 11:15:58;;;;;;;;;;;;;;;16.55;48.30;100920.56;5030220;28;1041;-52
2024/03/30 11:18:27;;;;;;;;;;;;;;;16.13;48.35;100922.44;5037207;28;1056;-50
2024/03/30 11:20:55;;;;;;;;;;;;;;;17.76;48.06;100924.31;5035755;28;1123;-51
2024/03/30 11:23:25;;;;;;;;;;;;;;;16.68;49.12;100926.69;5024241;28;1060;-50
2024/03/30 11:25:50;;;;;;;;;;;;;;;16.42;48.41;100924.03;5036584;28;936;-51
2024/03/30 11:28:17;;;;;;;;;;;;;;;16.20;48.02;100914.91;5035670;28;1051;-48
2024/03/30 11:30:43;;;;;;;;;;;;;;;17.21;48.43;100919.47;5035648;28;1097;-48
2024/03/30 11:33:08;;;;;;;;;;;;;;;16.51;48.98;100918.09;5036915;28;1905;-51
2024/03/30 11:36:00;;;;;;;;;;;;;;;16.26;48.50;100911.84;5037195;28;1220;-47
2024/03/30 11:38:27;;;;;;;;;;;;;;;16.14;47.38;100899.41;5033550;28;1349;-49
2024/03/30 11:40:58;;;;;;;;;;;;;;;17.34;47.99;100898.13;5018227;28;1061;-51
2024/03/30 11:43:53;;;;;;;;;;;;;;;16.44;48.86;100895.59;5034199;28;1247;-50
2024/03/30 11:46:19;;;;;;;;;;;;;;;16.12;48.29;100896.00;5021202;28;1556;-48
2024/03/30 11:48:44;;;;;;;;;;;;;;;16.04;47.64;100885.94;5035884;28;1215;-51
2024/03/30 11:51:16;;;;;;;;;;;;;;;16.00;47.09;100889.72;5050997;28;1981;-50
2024/03/30 11:53:42;;;;;;;;;;;;;;;15.92;47.02;100898.19;5036483;28;1085;-48
2024/03/30 11:56:09;;;;;;;;;;;;;;;16.55;48.09;100897.47;5036490;28;1048;-51
2024/03/30 11:58:34;;;;;;;;;;;;;;;16.36;48.08;100897.94;5036138;28;1104;-57
2024/03/30 12:01:00;;;;;;;;;;;;;;;16.13;47.56;100890.59;5036150;28;1075;-53
2024/03/30 12:03:25;;;;;;;;;;;;;;;17.17;47.92;100886.06;5036373;28;1008;-55
2024/03/30 12:05:54;;;;;;;;;;;;;;;16.44;48.43;100879.66;5036295;28;1020;-51
2024/03/30 12:08:23;;;;;;;;;;;;;;;16.17;48.07;100883.28;5035923;28;1131;-52
2024/03/30 12:10:52;;;;;;;;;;;;;;;16.16;47.99;100885.06;5018166;28;1508;-54
2024/03/30 12:13:21;;;;;;;;;;;;;;;16.73;48.33;100882.03;5036129;28;1024;-54
2024/03/30 12:15:47;;;;;;;;;;;;;;;16.27;48.45;100880.81;5035569;28;1051;-54
2024/03/30 12:18:12;;;;;;;;;;;;;;;16.25;48.26;100877.41;5018340;28;1112;-51
2024/03/30 12:20:38;;;;;;;;;;;;;;;16.80;48.18;100881.63;5031987;28;1199;-54
2024/03/30 12:23:05;;;;;;;;;;;;;;;16.29;48.38;100881.59;5016895;28;1147;-51
2024/03/30 12:25:31;;;;;;;;;;;;;;;16.06;47.83;100880.50;5015896;28;1247;-50
2024/03/30 12:27:57;;;;;;;;;;;;;;;17.46;47.72;100880.41;5042406;28;977;-50
2024/03/30 12:30:22;;;;;;;;;;;;;;;16.57;48.36;100878.78;5035476;28;1279;-51
2024/03/30 12:32:48;;;;;;;;;;;;;;;16.28;47.95;100885.19;5052487;28;1913;-49
2024/03/30 12:35:13;;;;;;;;;;;;;;;16.16;47.50;100885.06;5037520;28;1050;-52
2024/03/30 12:37:40;;;;;;;;;;;;;;;16.01;46.89;100873.75;5034271;28;1204;-52
2024/03/30 12:40:06;;;;;;;;;;;;;;;16.99;47.91;100879.31;5017371;28;1116;-51
2024/03/30 12:42:31;;;;;;;;;;;;;;;16.38;48.25;100872.97;5049959;28;1273;-52
2024/03/30 12:44:57;;;;;;;;;;;;;;;16.58;48.63;100870.69;5031366;28;1191;-52
2024/03/30 12:47:23;;;;;;;;;;;;;;;16.33;48.48;100799.91;5026802;28;1222;-52
2024/03/30 12:49:48;;;;;;;;;;;;;;;16.33;48.29;100872.44;5024361;28;1258;-51